• Join FlightAware (Why Join?)
  • Login
  • US Flag 
04:51AM EST


 

Airport Tracker/Info


-or-


 

Live Flight TrackerFlight Track Log ✈ TAM3591 ✈ 29-Apr-2013 ✈ SBBR / BSB - SBCG / CGR

Flight Track Log - Related Links

Times and Time Zones

All times are in EDT time to prevent confusion due to time zone crossing. See the TAM3591 flight status page for this flight to view local times or setup timezone preferences in your user account.

Time Position Orientation Groundspeed Altitude Reporting Facility
EDT Latitude Longitude Course Direction KTS MPH feet Rate Location/Type
09:42PM -15.8980 -47.8520 270° West 180 207 5,500  Level FlightAware
09:44PM -15.9871 -47.9786 234° Southwest  Level Estimated
09:45PM -16.0390 -48.0524 234° Southwest  Level Estimated
09:46PM -16.0908 -48.1262 234° Southwest  Level Estimated
09:47PM -16.1427 -48.2001 234° Southwest  Level Estimated
09:48PM -16.2032 -48.2865 234° Southwest  Level Estimated
09:49PM -16.2550 -48.3604 234° Southwest  Level Estimated
09:49PM -16.2260 -48.4240 234° Southwest 386 444 18,000  Level FlightAware
09:50PM -16.2710 -48.4890 234° Southwest 387 445 19,400 1,560 Climbing FlightAware
09:51PM -16.3480 -48.6010 234° Southwest 401 461 21,000 840 Climbing FlightAware
09:52PM -16.3860 -48.6540 233° Southwest 401 461 21,000  Level FlightAware
09:53PM -16.4230 -48.7070 234° Southwest 401 461 21,000  Level FlightAware
09:53PM -16.4690 -48.7740 234° Southwest 401 461 21,000  Level FlightAware
09:54PM -16.5060 -48.8270 234° Southwest 401 461 21,000  Level FlightAware
09:55PM -16.5430 -48.8800 234° Southwest 401 461 21,000  Level FlightAware
09:57PM -16.6369 -49.0128 234° Southwest  Level Estimated
09:58PM -16.6891 -49.0866 234° Southwest  Level Estimated
09:59PM -16.7412 -49.1605 234° Southwest  Level Estimated
10:00PM -16.7933 -49.2344 234° Southwest  Level Estimated
10:01PM -16.8453 -49.3083 234° Southwest  Level Estimated
10:02PM -16.8974 -49.3823 234° Southwest  Level Estimated
10:03PM -16.9494 -49.4564 234° Southwest  Level Estimated
10:04PM -17.0013 -49.5304 234° Southwest  Level Estimated
10:05PM -17.0533 -49.6046 234° Southwest  Level Estimated
10:06PM -17.1052 -49.6787 234° Southwest  Level Estimated
10:07PM -17.1571 -49.7529 234° Southwest  Level Estimated
10:08PM -17.2090 -49.8272 234° Southwest  Level Estimated
10:09PM -17.2608 -49.9014 234° Southwest  Level Estimated
10:10PM -17.3127 -49.9758 234° Southwest  Level Estimated
10:11PM -17.3645 -50.0501 234° Southwest  Level Estimated
10:12PM -17.4162 -50.1245 234° Southwest  Level Estimated
10:13PM -17.4680 -50.1990 234° Southwest  Level Estimated
10:14PM -17.5197 -50.2735 234° Southwest  Level Estimated
10:15PM -17.5713 -50.3480 234° Southwest  Level Estimated
10:16PM -17.6230 -50.4226 234° Southwest  Level Estimated
10:17PM -17.6746 -50.4972 234° Southwest  Level Estimated
10:18PM -17.7262 -50.5719 234° Southwest  Level Estimated
10:19PM -17.7726 -50.6391 234° Southwest  Level Estimated
10:20PM -17.8190 -50.7064 234° Southwest  Level Estimated
10:21PM -17.8654 -50.7737 234° Southwest  Level Estimated
10:22PM -17.9117 -50.8410 234° Southwest  Level Estimated
10:23PM -17.9580 -50.9084 234° Southwest  Level Estimated
10:24PM -18.0043 -50.9758 234° Southwest  Level Estimated
10:25PM -18.0506 -51.0432 234° Southwest  Level Estimated
10:26PM -18.0969 -51.1107 234° Southwest  Level Estimated
10:27PM -18.1431 -51.1782 234° Southwest  Level Estimated
10:28PM -18.1893 -51.2458 234° Southwest  Level Estimated
10:29PM -18.2355 -51.3134 234° Southwest  Level Estimated
10:30PM -18.2816 -51.3810 234° Southwest  Level Estimated
10:31PM -18.3278 -51.4486 234° Southwest  Level Estimated
10:32PM -18.3739 -51.5163 234° Southwest  Level Estimated
10:33PM -18.4200 -51.5840 234° Southwest  Level Estimated
10:34PM -18.4660 -51.6518 234° Southwest  Level Estimated
10:35PM -18.5121 -51.7196 234° Southwest  Level Estimated
10:36PM -18.5581 -51.7875 234° Southwest  Level Estimated
10:37PM -18.6040 -51.8553 234° Southwest  Level Estimated
10:38PM -18.6500 -51.9232 234° Southwest  Level Estimated
10:39PM -18.6959 -51.9912 234° Southwest  Level Estimated
10:40PM -18.7419 -52.0592 234° Southwest  Level Estimated
10:41PM -18.7878 -52.1272 235° Southwest  Level Estimated
10:42PM -18.8336 -52.1953 235° Southwest  Level Estimated
10:43PM -18.8794 -52.2634 235° Southwest  Level Estimated
10:44PM -18.9253 -52.3315 235° Southwest  Level Estimated
10:45PM -18.9711 -52.3997 235° Southwest  Level Estimated
10:46PM -19.0168 -52.4679 235° Southwest  Level Estimated
10:47PM -19.0626 -52.5361 235° Southwest  Level Estimated
10:48PM -19.1083 -52.6044 235° Southwest  Level Estimated
10:49PM -19.1540 -52.6727 235° Southwest  Level Estimated
10:50PM -19.1996 -52.7411 235° Southwest  Level Estimated
10:51PM -19.2453 -52.8095 235° Southwest  Level Estimated
10:52PM -19.2909 -52.8779 235° Southwest  Level Estimated
10:53PM -19.3365 -52.9464 235° Southwest  Level Estimated
10:54PM -19.3820 -53.0149 235° Southwest  Level Estimated
10:55PM -19.4276 -53.0835 235° Southwest  Level Estimated
10:56PM -19.4731 -53.1521 235° Southwest  Level Estimated
10:57PM -19.5186 -53.2207 235° Southwest  Level Estimated
10:58PM -19.5640 -53.2894 235° Southwest  Level Estimated
10:59PM -19.6095 -53.3581 235° Southwest  Level Estimated
11:00PM -19.6549 -53.4268 235° Southwest  Level Estimated
11:01PM -19.7003 -53.4956 235° Southwest  Level Estimated
11:02PM -19.7456 -53.5644 235° Southwest  Level Estimated
11:03PM -19.7910 -53.6333 235° Southwest  Level Estimated
11:04PM -19.8363 -53.7022 235° Southwest  Level Estimated
11:05PM -19.8815 -53.7711 235° Southwest  Level Estimated
11:06PM -19.9268 -53.8401 235° Southwest  Level Estimated
11:07PM -19.9720 -53.9091 235° Southwest  Level Estimated
11:08PM -20.0172 -53.9782 235° Southwest  Level Estimated
11:09PM -20.0624 -54.0473 235° Southwest  Level Estimated
11:10PM -20.1075 -54.1164 235° Southwest  Level Estimated
11:11PM -20.1526 -54.1856 235° Southwest  Level Estimated
11:12PM -20.1977 -54.2548 235° Southwest  Level Estimated
11:13PM -20.2428 -54.3241 235° Southwest  Level Estimated
11:14PM -20.2878 -54.3934 235° Southwest  Level Estimated
11:15PM -20.3328 -54.4627 235° Southwest  Level Estimated
11:16PM -20.3778 -54.5321 235° Southwest  Level Estimated
11:17PM -20.4228 -54.6015 235° Southwest  Level Estimated
11:18PM -20.4677 -54.6710 235° Southwest  Level Estimated
11:19PM -20.4687 -54.6725 235° Southwest  Level Estimated
11:20PM -20.4687 -54.6725 343° North  Level Estimated
11:21PM -20.4687 -54.6725 343° North  Level Estimated
11:22PM -20.4687 -54.6725 343° North  Level Estimated
11:23PM -20.4687 -54.6725 343° North  Level Estimated
11:24PM -20.4687 -54.6725 343° North  Level Estimated
11:25PM -20.4687 -54.6725 343° North  Level Estimated